Fort Raleigh National Histor, North Carolina
Current Conditions -  °F | °C
As of 5:00 AM on Thursday 29 Jan 2015 (Local Time) from KMQI Reporting Station
Clear Clear  
Wind Chill: 26°   Ceiling: Unl
Heat Index: 32°   Visibility: 10mi
Dew Point: 18°   Wind: 6mph
Humidity: 55%   Direction: 340°NNW
Pressure: 30.31"   Gusts: NA
Location:  35.8834°N, 75.6616°W
Report Text: KMQI 291000Z AUTO 34005KT 10SM CLR 00/M08 A3031 RMK AO2
Loading
Personal Weather Stations






























Interactive Weather Map New forecast layout! Learn more

10-Day Weather Forecast

Advertisements
Track Severe Weather on mobile